createdAt,value
2018-01-03T00:00:16.856Z,13.20
2018-01-03T00:02:46.578Z,13.18
2018-01-03T00:05:16.413Z,8.90
2018-01-03T00:07:46.020Z,11.32
2018-01-03T00:10:15.883Z,13.25
2018-01-03T00:12:45.765Z,9.70
2018-01-03T00:15:15.626Z,10.20
2018-01-03T00:17:45.536Z,15.23
2018-01-03T00:20:15.142Z,10.32
2018-01-03T00:22:45.903Z,15.25
2018-01-03T00:25:18.784Z,9.13
2018-01-03T00:27:49.174Z,14.15
2018-01-03T00:30:19.040Z,12.00
2018-01-03T00:32:48.988Z,6.78
2018-01-03T00:35:18.849Z,12.63
2018-01-03T00:37:48.702Z,7.18
2018-01-03T00:40:18.570Z,7.45
2018-01-03T00:42:48.424Z,7.80
2018-01-03T00:45:18.320Z,12.02
2018-01-03T00:47:48.164Z,15.95
2018-01-03T00:50:18.004Z,7.70
2018-01-03T00:52:47.876Z,11.00
2018-01-03T00:55:17.718Z,8.77
2018-01-03T00:57:47.532Z,6.15
2018-01-03T01:00:17.482Z,10.23
2018-01-03T01:02:47.195Z,13.40
2018-01-03T01:05:18.040Z,7.50
2018-01-03T01:07:47.722Z,13.98
2018-01-03T01:10:17.552Z,9.48
2018-01-03T01:12:47.433Z,9.43
2018-01-03T01:15:23.317Z,8.75
2018-01-03T01:17:53.199Z,13.43
2018-01-03T01:20:23.069Z,8.27
2018-01-03T01:22:52.956Z,7.70
2018-01-03T01:25:22.868Z,10.30
2018-01-03T01:27:52.700Z,8.70
2018-01-03T01:30:22.556Z,15.38
2018-01-03T01:32:52.402Z,9.48
2018-01-03T01:35:22.339Z,14.87
2018-01-03T01:37:52.185Z,9.70
2018-01-03T01:40:22.055Z,13.60
2018-01-03T01:42:51.898Z,7.00
2018-01-03T01:45:21.727Z,10.63
2018-01-03T01:47:51.633Z,10.68
2018-01-03T01:50:21.533Z,10.88
2018-01-03T01:52:51.357Z,12.73
2018-01-03T01:55:21.207Z,10.65
2018-01-03T01:57:50.802Z,11.00
2018-01-03T02:00:20.635Z,7.70
2018-01-03T02:02:50.344Z,12.85
2018-01-03T02:05:19.979Z,13.62
2018-01-03T02:07:49.875Z,8.00
2018-01-03T02:10:19.438Z,10.60
2018-01-03T02:12:49.277Z,11.05
2018-01-03T02:15:19.173Z,8.02
2018-01-03T02:17:50.095Z,14.95
2018-01-03T02:20:19.999Z,9.52
2018-01-03T02:22:49.891Z,18.17
2018-01-03T02:25:19.738Z,15.98
2018-01-03T02:27:49.639Z,17.62
2018-01-03T02:30:19.484Z,16.23
2018-01-03T02:32:49.375Z,16.35
2018-01-03T02:35:19.313Z,17.08
2018-01-03T02:37:49.527Z,13.10
2018-01-03T02:40:19.422Z,13.52
2018-01-03T02:42:49.321Z,16.55
2018-01-03T02:45:19.165Z,14.40
2018-01-03T02:47:49.050Z,10.43
2018-01-03T02:50:18.949Z,12.00
2018-01-03T02:52:49.658Z,18.42
2018-01-03T02:55:19.500Z,14.77
2018-01-03T02:57:49.382Z,12.75
2018-01-03T03:00:19.304Z,18.58
2018-01-03T03:02:49.213Z,14.23
2018-01-03T03:05:19.080Z,15.30
2018-01-03T03:07:48.969Z,12.15
2018-01-03T03:10:19.115Z,15.13
2018-01-03T03:12:48.682Z,20.98
2018-01-03T03:15:18.520Z,14.35
2018-01-03T03:17:48.449Z,13.43
2018-01-03T03:20:18.386Z,10.32
2018-01-03T03:22:48.246Z,15.85
2018-01-03T03:25:18.116Z,12.85
2018-01-03T03:27:49.032Z,18.62
2018-01-03T03:30:18.941Z,18.27
2018-01-03T03:32:48.785Z,14.65
2018-01-03T03:35:18.630Z,25.05
2018-01-03T03:37:48.465Z,15.23
2018-01-03T03:40:18.362Z,14.70
2018-01-03T03:42:48.228Z,10.90
2018-01-03T03:45:18.136Z,14.50
2018-01-03T03:47:47.967Z,22.05
2018-01-03T03:50:17.846Z,10.35
2018-01-03T03:52:47.752Z,16.40
2018-01-03T03:55:17.583Z,16.70
2018-01-03T03:57:47.546Z,12.68
2018-01-03T04:00:25.670Z,12.73
2018-01-03T04:02:55.614Z,12.52
2018-01-03T04:05:25.492Z,12.00
2018-01-03T04:07:55.333Z,11.43
2018-01-03T04:10:25.183Z,13.07
2018-01-03T04:12:55.132Z,15.80
2018-01-03T04:15:25.029Z,18.95
2018-01-03T04:17:54.915Z,12.73
2018-01-03T04:20:24.758Z,11.90
2018-01-03T04:22:54.577Z,13.82
2018-01-03T04:25:24.500Z,12.65
2018-01-03T04:27:54.432Z,11.65
2018-01-03T04:30:24.458Z,11.98
2018-01-03T04:32:54.453Z,12.93
2018-01-03T04:35:24.278Z,13.32
2018-01-03T04:37:54.185Z,11.95
2018-01-03T04:40:24.088Z,14.23
2018-01-03T04:42:54.014Z,18.95
2018-01-03T04:45:23.935Z,14.38
2018-01-03T04:47:53.796Z,18.62
2018-01-03T04:50:23.645Z,15.73
2018-01-03T04:52:53.532Z,14.98
2018-01-03T04:55:23.353Z,17.42
2018-01-03T04:57:53.223Z,13.15
2018-01-03T05:00:23.089Z,14.20
2018-01-03T05:02:53.021Z,14.73
2018-01-03T05:05:22.849Z,14.57
2018-01-03T05:07:52.699Z,13.50
2018-01-03T05:10:22.569Z,13.52
2018-01-03T05:12:52.487Z,11.18
2018-01-03T05:15:22.309Z,9.13
2018-01-03T05:17:53.391Z,18.30
2018-01-03T05:20:23.286Z,14.52
2018-01-03T05:22:53.150Z,13.82
2018-01-03T05:25:23.905Z,16.52
2018-01-03T05:27:54.823Z,13.00
2018-01-03T05:30:24.827Z,13.10
2018-01-03T05:32:55.023Z,10.63
2018-01-03T05:35:24.948Z,13.77
2018-01-03T05:37:54.785Z,19.98
2018-01-03T05:40:24.670Z,18.17
2018-01-03T05:42:54.574Z,11.52
2018-01-03T05:45:24.459Z,11.48
2018-01-03T05:47:54.326Z,17.20
2018-01-03T05:50:24.177Z,12.88
2018-01-03T05:52:54.200Z,14.10
2018-01-03T05:55:24.259Z,16.10
2018-01-03T05:57:54.948Z,12.40
2018-01-03T06:00:24.752Z,15.10
2018-01-03T06:02:54.325Z,12.88
2018-01-03T06:05:24.159Z,13.35
2018-01-03T06:07:54.072Z,10.02
2018-01-03T06:10:23.882Z,11.95
2018-01-03T06:12:53.717Z,9.88
2018-01-03T06:15:23.525Z,16.08
2018-01-03T06:17:53.423Z,15.88
2018-01-03T06:20:23.299Z,13.57
2018-01-03T06:22:53.102Z,12.77
2018-01-03T06:25:22.939Z,10.70
2018-01-03T06:27:53.300Z,11.88
2018-01-03T06:30:25.342Z,14.35
2018-01-03T06:32:55.164Z,8.27
2018-01-03T06:35:25.157Z,9.93
2018-01-03T06:37:55.084Z,10.02
2018-01-03T06:40:25.001Z,12.80
2018-01-03T06:42:55.827Z,12.65
2018-01-03T06:45:26.226Z,7.37
2018-01-03T06:47:57.106Z,8.65
2018-01-03T06:50:26.964Z,6.30
2018-01-03T06:52:56.811Z,5.82
2018-01-03T06:55:26.866Z,9.32
2018-01-03T06:57:56.655Z,9.85
2018-01-03T07:00:26.456Z,5.28
2018-01-03T07:02:56.318Z,8.90
2018-01-03T07:05:25.961Z,7.75
2018-01-03T07:07:55.838Z,2.95
2018-01-03T07:10:25.639Z,3.47
2018-01-03T07:12:55.458Z,3.70
2018-01-03T07:15:25.270Z,4.12
2018-01-03T07:17:55.080Z,7.10
2018-01-03T07:20:24.880Z,4.10
2018-01-03T07:22:54.697Z,5.20
2018-01-03T07:25:24.487Z,3.10
2018-01-03T07:27:54.285Z,6.80
2018-01-03T07:30:24.080Z,3.90
2018-01-03T07:32:53.891Z,6.15
2018-01-03T07:35:23.680Z,6.53
2018-01-03T07:37:53.495Z,4.28
2018-01-03T07:40:23.288Z,4.12
2018-01-03T07:42:53.201Z,9.85
2018-01-03T07:45:22.976Z,3.42
2018-01-03T07:47:52.751Z,4.10
2018-01-03T07:50:22.554Z,7.53
2018-01-03T07:52:53.009Z,3.85
2018-01-03T07:55:22.796Z,7.10
2018-01-03T07:57:52.633Z,7.00
2018-01-03T08:00:22.450Z,4.82
2018-01-03T08:02:52.041Z,3.42
2018-01-03T08:05:21.841Z,4.25
2018-01-03T08:07:51.800Z,2.80
2018-01-03T08:10:21.646Z,2.60
2018-01-03T08:12:51.429Z,2.20
2018-01-03T08:15:21.306Z,3.00
2018-01-03T08:17:51.204Z,2.20
2018-01-03T08:20:21.049Z,1.80
2018-01-03T08:22:50.880Z,3.67
2018-01-03T08:25:20.686Z,3.50
2018-01-03T08:27:50.473Z,4.30
2018-01-03T08:30:20.278Z,2.65
2018-01-03T08:32:49.900Z,5.25
2018-01-03T08:35:19.747Z,8.13
2018-01-03T08:37:49.540Z,2.75
2018-01-03T08:40:19.352Z,3.28
2018-01-03T08:42:49.141Z,6.20
2018-01-03T08:45:18.929Z,5.85
2018-01-03T08:47:48.735Z,4.22
2018-01-03T08:50:18.552Z,2.17
2018-01-03T08:52:48.354Z,7.03
2018-01-03T08:55:18.269Z,3.00
2018-01-03T08:57:48.048Z,2.37
2018-01-03T09:00:17.841Z,4.05
2018-01-03T09:02:48.121Z,2.30
2018-01-03T09:05:17.919Z,2.97
2018-01-03T09:07:47.761Z,3.10
2018-01-03T09:10:17.601Z,2.95
2018-01-03T09:12:47.424Z,3.08
2018-01-03T09:15:17.260Z,2.85
2018-01-03T09:17:47.056Z,2.90
2018-01-03T09:20:16.887Z,4.47
2018-01-03T09:22:46.675Z,1.70
2018-01-03T09:25:16.517Z,2.42
2018-01-03T09:27:46.308Z,1.65
2018-01-03T09:30:16.131Z,5.10
2018-01-03T09:32:45.968Z,4.85
2018-01-03T09:35:15.904Z,2.30
2018-01-03T09:37:45.496Z,3.25
2018-01-03T09:40:15.308Z,3.50
2018-01-03T09:42:45.255Z,3.17
2018-01-03T09:45:15.085Z,1.95
2018-01-03T09:47:44.922Z,1.33
2018-01-03T09:50:14.519Z,6.28
2018-01-03T09:52:45.254Z,1.85
2018-01-03T09:55:15.064Z,5.32
2018-01-03T09:57:44.870Z,3.67
2018-01-03T10:00:14.674Z,2.08
2018-01-03T10:02:44.494Z,4.57
2018-01-03T10:05:14.272Z,3.80
2018-01-03T10:07:44.106Z,3.15
2018-01-03T10:10:13.906Z,1.52
2018-01-03T10:12:43.737Z,5.85
2018-01-03T10:15:13.549Z,4.05
2018-01-03T10:17:43.377Z,2.20
2018-01-03T10:20:13.185Z,4.20
2018-01-03T10:22:43.000Z,2.67
2018-01-03T10:25:12.794Z,2.05
2018-01-03T10:27:42.610Z,2.28
2018-01-03T10:30:12.422Z,3.92
2018-01-03T10:32:42.237Z,3.22
2018-01-03T10:35:12.032Z,1.40
2018-01-03T10:37:41.817Z,3.30
2018-01-03T10:40:11.372Z,1.48
2018-01-03T10:42:41.200Z,1.70
2018-01-03T10:45:11.040Z,3.75
2018-01-03T10:47:40.940Z,2.47
2018-01-03T10:50:10.996Z,2.25
2018-01-03T10:52:41.056Z,1.35
2018-01-03T10:55:10.873Z,2.40
2018-01-03T10:57:40.770Z,1.23
2018-01-03T11:00:10.885Z,1.98
2018-01-03T11:02:40.693Z,2.92
2018-01-03T11:05:10.501Z,1.98
2018-01-03T11:07:40.320Z,1.27
2018-01-03T11:10:10.124Z,1.73
2018-01-03T11:12:39.974Z,1.65
2018-01-03T11:15:09.830Z,1.95
2018-01-03T11:17:39.594Z,5.50
2018-01-03T11:20:09.373Z,2.92
2018-01-03T11:22:39.173Z,2.75
2018-01-03T11:25:08.972Z,4.60
2018-01-03T11:27:39.070Z,8.10
2018-01-03T11:30:08.857Z,5.93
2018-01-03T11:32:38.677Z,6.20
2018-01-03T11:35:12.409Z,7.82
2018-01-03T11:37:42.256Z,8.18
2018-01-03T11:40:12.077Z,5.12
2018-01-03T11:42:41.888Z,7.40
2018-01-03T11:45:11.700Z,5.30
2018-01-03T11:47:41.507Z,8.77
2018-01-03T11:50:15.253Z,4.68
2018-01-03T11:52:45.057Z,5.32
2018-01-03T11:55:14.887Z,6.10
2018-01-03T11:57:44.688Z,7.78
2018-01-03T12:00:14.522Z,9.30
2018-01-03T12:02:44.298Z,11.68
2018-01-03T12:05:14.111Z,8.25
2018-01-03T12:07:44.054Z,5.10
2018-01-03T12:10:15.309Z,8.32
2018-01-03T12:12:45.811Z,5.57
2018-01-03T12:15:15.616Z,4.55
2018-01-03T12:17:45.538Z,7.15
2018-01-03T12:20:15.363Z,5.80
2018-01-03T12:22:45.170Z,4.20
2018-01-03T12:25:15.034Z,4.05
2018-01-03T12:27:44.828Z,5.00
2018-01-03T12:30:14.677Z,4.32
2018-01-03T12:32:45.490Z,6.70
2018-01-03T12:35:15.306Z,8.35
2018-01-03T12:37:45.115Z,3.28
2018-01-03T12:40:14.795Z,3.20
2018-01-03T12:42:44.658Z,3.00
2018-01-03T12:45:14.469Z,4.72
2018-01-03T12:47:44.303Z,6.97
2018-01-03T12:50:14.224Z,4.30
2018-01-03T12:52:44.093Z,4.00
2018-01-03T12:55:13.942Z,3.08
2018-01-03T12:57:43.739Z,6.05
2018-01-03T13:00:13.606Z,3.20
2018-01-03T13:02:43.402Z,3.70
2018-01-03T13:05:13.217Z,4.80
2018-01-03T13:07:43.046Z,3.05
2018-01-03T13:10:12.869Z,2.70
2018-01-03T13:12:42.729Z,2.03
2018-01-03T13:15:12.265Z,2.33
2018-01-03T13:17:42.076Z,2.75
2018-01-03T13:20:11.993Z,2.12
2018-01-03T13:22:41.809Z,2.75
2018-01-03T13:25:11.839Z,1.85
2018-01-03T13:27:41.629Z,2.55
2018-01-03T13:30:11.722Z,1.40
2018-01-03T13:32:41.180Z,2.03
2018-01-03T13:35:10.972Z,1.67
2018-01-03T13:37:40.780Z,1.95
2018-01-03T13:40:10.566Z,1.67
2018-01-03T13:42:40.352Z,1.45
2018-01-03T13:45:10.284Z,1.30
2018-01-03T13:47:40.029Z,1.10
2018-01-03T13:50:10.122Z,3.33
2018-01-03T13:52:39.927Z,1.33
2018-01-03T13:55:10.773Z,0.82
2018-01-03T13:57:40.558Z,0.80
2018-01-03T14:00:10.351Z,0.90
2018-01-03T14:02:40.162Z,1.98
2018-01-03T14:05:09.953Z,1.40
2018-01-03T14:07:39.746Z,0.90
2018-01-03T14:10:09.553Z,1.10
2018-01-03T14:12:39.332Z,0.70
2018-01-03T14:15:09.604Z,0.90
2018-01-03T14:17:39.410Z,1.00
2018-01-03T14:20:09.221Z,0.82
2018-01-03T14:22:39.012Z,2.03
2018-01-03T14:25:08.820Z,0.50
2018-01-03T14:27:38.595Z,0.98
2018-01-03T14:30:08.476Z,0.75
2018-01-03T14:32:38.299Z,0.75
2018-01-03T14:35:08.088Z,0.68
2018-01-03T14:37:37.877Z,0.80
2018-01-03T14:40:07.666Z,0.70
2018-01-03T14:42:37.451Z,0.70
2018-01-03T14:45:07.342Z,3.22
2018-01-03T14:47:37.126Z,0.70
2018-01-03T14:50:06.896Z,0.88
2018-01-03T14:52:36.688Z,1.60
2018-01-03T14:55:06.552Z,2.05
2018-01-03T14:57:36.373Z,3.08
2018-01-03T15:00:06.630Z,0.98
2018-01-03T15:02:36.456Z,1.00
2018-01-03T15:05:06.284Z,0.80
2018-01-03T15:07:35.862Z,0.60
2018-01-03T15:10:05.633Z,0.98
2018-01-03T15:12:35.390Z,0.52
2018-01-03T15:15:05.227Z,0.77
2018-01-03T15:17:35.078Z,0.77
2018-01-03T15:20:04.842Z,0.77
2018-01-03T15:22:34.913Z,1.48
2018-01-03T15:25:04.776Z,1.40
2018-01-03T15:27:34.586Z,0.80
2018-01-03T15:30:04.598Z,0.70
2018-01-03T15:32:34.183Z,0.50
2018-01-03T15:35:03.982Z,0.70
2018-01-03T15:37:33.465Z,0.70
2018-01-03T15:40:03.025Z,4.25
2018-01-03T15:42:32.884Z,2.15
2018-01-03T15:45:02.743Z,0.70
2018-01-03T15:47:32.669Z,2.25
2018-01-03T15:50:02.506Z,1.00
2018-01-03T15:52:32.333Z,1.83
2018-01-03T15:55:02.121Z,0.75
2018-01-03T15:57:31.963Z,1.65
2018-01-03T16:00:01.835Z,0.70
2018-01-03T16:02:31.695Z,0.62
2018-01-03T16:05:01.502Z,0.90
2018-01-03T16:07:31.367Z,3.45
2018-01-03T16:10:01.213Z,0.90
2018-01-03T16:12:33.714Z,1.95
2018-01-03T16:15:03.605Z,2.08
2018-01-03T16:17:33.457Z,1.55
2018-01-03T16:20:04.186Z,1.20
2018-01-03T16:22:33.711Z,3.55
2018-01-03T16:25:03.539Z,2.35
2018-01-03T16:27:33.406Z,2.15
2018-01-03T16:30:03.219Z,4.00
2018-01-03T16:32:33.088Z,2.85
2018-01-03T16:35:02.907Z,0.60
2018-01-03T16:37:32.738Z,0.90
2018-01-03T16:40:02.620Z,1.42
2018-01-03T16:42:32.577Z,0.90
2018-01-03T16:45:02.427Z,1.25
2018-01-03T16:47:32.252Z,0.80
2018-01-03T16:50:02.070Z,0.70
2018-01-03T16:52:37.166Z,0.93
2018-01-03T16:55:06.923Z,1.35
2018-01-03T16:57:36.729Z,1.85
2018-01-03T17:00:06.572Z,3.80
2018-01-03T17:02:36.196Z,5.50
2018-01-03T17:05:06.208Z,1.10
2018-01-03T17:07:36.086Z,0.90
2018-01-03T17:10:05.569Z,1.30
2018-01-03T17:12:35.501Z,2.47
2018-01-03T17:15:05.317Z,0.88
2018-01-03T17:17:35.117Z,0.80
2018-01-03T17:20:05.194Z,1.73
2018-01-03T17:22:35.024Z,2.72
2018-01-03T17:25:05.633Z,2.75
2018-01-03T17:27:35.475Z,2.65
2018-01-03T17:30:05.275Z,11.00
2018-01-03T17:32:35.094Z,1.85
2018-01-03T17:35:04.880Z,0.88
2018-01-03T17:37:34.696Z,2.45
2018-01-03T17:40:08.410Z,1.08
2018-01-03T17:42:38.217Z,2.40
2018-01-03T17:45:08.061Z,2.45
2018-01-03T17:47:37.882Z,1.35
2018-01-03T17:50:07.754Z,1.70
2018-01-03T17:52:37.600Z,1.05
2018-01-03T17:55:07.641Z,2.33
2018-01-03T17:57:37.479Z,2.40
2018-01-03T18:00:07.429Z,1.00
2018-01-03T18:02:37.127Z,2.78
2018-01-03T18:05:07.070Z,1.30
2018-01-03T18:07:37.325Z,4.43
2018-01-03T18:10:07.346Z,1.17
2018-01-03T18:12:37.189Z,4.85
2018-01-03T18:15:07.166Z,1.98
2018-01-03T18:17:37.054Z,1.20
2018-01-03T18:20:06.981Z,0.80
2018-01-03T18:22:36.854Z,2.55
2018-01-03T18:25:06.841Z,1.00
2018-01-03T18:27:36.711Z,1.58
2018-01-03T18:30:06.547Z,1.08
2018-01-03T18:32:36.384Z,2.05
2018-01-03T18:35:06.202Z,1.33
2018-01-03T18:37:36.112Z,0.93
2018-01-03T18:40:05.967Z,1.65
2018-01-03T18:42:35.826Z,7.53
2018-01-03T18:45:05.658Z,2.85
2018-01-03T18:47:35.486Z,2.78
2018-01-03T18:50:05.383Z,3.03
2018-01-03T18:52:35.223Z,1.23
2018-01-03T18:55:05.890Z,6.57
2018-01-03T18:57:36.333Z,4.12
2018-01-03T19:00:06.929Z,1.75
2018-01-03T19:02:37.040Z,2.97
2018-01-03T19:05:07.432Z,1.85
2018-01-03T19:07:37.733Z,1.62
2018-01-03T19:10:07.910Z,1.00
2018-01-03T19:12:37.867Z,0.82
2018-01-03T19:15:08.034Z,3.22
2018-01-03T19:17:38.223Z,2.12
2018-01-03T19:20:08.425Z,1.20
2018-01-03T19:22:38.436Z,3.00
2018-01-03T19:25:08.721Z,3.42
2018-01-03T19:27:38.822Z,4.25
2018-01-03T19:30:09.176Z,1.37
2018-01-03T19:32:39.152Z,3.37
2018-01-03T19:35:09.072Z,0.80
2018-01-03T19:37:39.120Z,4.97
2018-01-03T19:40:09.339Z,7.85
2018-01-03T19:42:39.235Z,2.35
2018-01-03T19:45:09.520Z,4.82
2018-01-03T19:47:39.431Z,3.53
2018-01-03T19:50:09.356Z,7.05
2018-01-03T19:52:39.321Z,3.95
2018-01-03T19:55:09.281Z,4.00
2018-01-03T19:57:39.302Z,1.30
2018-01-03T20:00:09.455Z,4.32
2018-01-03T20:02:39.407Z,6.28
2018-01-03T20:05:09.307Z,3.90
2018-01-03T20:07:38.955Z,3.83
2018-01-03T20:10:08.932Z,5.95
2018-01-03T20:12:38.969Z,3.55
2018-01-03T20:15:09.173Z,2.70
2018-01-03T20:17:39.502Z,4.60
2018-01-03T20:20:09.549Z,6.03
2018-01-03T20:22:39.601Z,1.55
2018-01-03T20:25:10.107Z,5.62
2018-01-03T20:27:40.623Z,9.88
2018-01-03T20:30:11.112Z,3.05
2018-01-03T20:32:41.428Z,4.30
2018-01-03T20:35:11.590Z,3.72
2018-01-03T20:37:41.838Z,4.25
2018-01-03T20:40:11.979Z,3.55
2018-01-03T20:42:42.211Z,4.07
2018-01-03T20:45:12.509Z,4.37
2018-01-03T20:47:43.896Z,2.53
2018-01-03T20:50:13.933Z,1.40
2018-01-03T20:52:44.137Z,2.65
2018-01-03T20:55:14.283Z,2.47
2018-01-03T20:57:48.250Z,2.15
2018-01-03T21:00:19.365Z,2.20
2018-01-03T21:02:49.372Z,4.53
2018-01-03T21:05:19.711Z,2.58
2018-01-03T21:07:49.638Z,6.43
2018-01-03T21:10:19.502Z,2.00
2018-01-03T21:12:49.337Z,3.15
2018-01-03T21:15:19.196Z,3.20
2018-01-03T21:17:49.098Z,5.18
2018-01-03T21:20:19.026Z,6.15
2018-01-03T21:22:48.975Z,6.15
2018-01-03T21:25:19.024Z,2.75
2018-01-03T21:27:48.979Z,5.20
2018-01-03T21:30:19.019Z,4.68
2018-01-03T21:32:57.958Z,3.45
2018-01-03T21:35:30.225Z,2.25
2018-01-03T21:38:00.078Z,2.25
2018-01-03T21:40:29.881Z,2.47
2018-01-03T21:42:59.851Z,5.68
2018-01-03T21:45:29.689Z,3.15
2018-01-03T21:47:59.791Z,5.10
2018-01-03T21:50:29.724Z,7.10
2018-01-03T21:52:59.611Z,9.10
2018-01-03T21:55:29.447Z,6.90
2018-01-03T21:57:59.280Z,4.18
2018-01-03T22:00:29.098Z,6.07
2018-01-03T22:02:59.052Z,2.90
2018-01-03T22:05:28.962Z,6.47
2018-01-03T22:07:58.781Z,8.95
2018-01-03T22:10:28.691Z,4.28
2018-01-03T22:12:58.538Z,6.93
2018-01-03T22:15:28.425Z,6.82
2018-01-03T22:18:00.457Z,4.15
2018-01-03T22:20:30.371Z,3.65
2018-01-03T22:23:00.158Z,6.57
2018-01-03T22:25:30.054Z,2.00
2018-01-03T22:27:59.888Z,10.93
2018-01-03T22:30:31.130Z,3.22
2018-01-03T22:33:01.047Z,3.35
2018-01-03T22:35:30.851Z,4.07
2018-01-03T22:38:00.764Z,6.28
2018-01-03T22:40:31.378Z,2.97
2018-01-03T22:43:01.230Z,2.30
2018-01-03T22:45:31.317Z,3.75
2018-01-03T22:48:01.179Z,2.97
2018-01-03T22:50:30.979Z,5.65
2018-01-03T22:53:00.858Z,5.50
2018-01-03T22:55:30.660Z,3.80
2018-01-03T22:58:00.475Z,8.10
2018-01-03T23:00:30.293Z,4.12
2018-01-03T23:02:59.833Z,1.70
2018-01-03T23:05:29.682Z,6.43
2018-01-03T23:07:59.593Z,10.70
2018-01-03T23:10:30.211Z,7.55
2018-01-03T23:13:00.079Z,2.08
2018-01-03T23:15:29.865Z,4.87
2018-01-03T23:17:59.737Z,1.77
2018-01-03T23:20:29.620Z,3.53
2018-01-03T23:22:59.410Z,1.20
2018-01-03T23:25:37.903Z,4.25
2018-01-03T23:28:10.180Z,2.20
2018-01-03T23:30:40.031Z,6.10
2018-01-03T23:33:09.879Z,4.60
2018-01-03T23:35:39.420Z,3.60
2018-01-03T23:38:10.044Z,8.15
2018-01-03T23:40:39.919Z,2.20
2018-01-03T23:43:10.002Z,3.22
2018-01-03T23:45:39.917Z,4.20
2018-01-03T23:48:09.718Z,6.28
2018-01-03T23:50:39.597Z,5.50
2018-01-03T23:53:09.428Z,4.45
2018-01-03T23:55:39.367Z,4.37
2018-01-03T23:58:09.388Z,3.75
